sensor_id;sensor_type;location;lat;lon;timestamp;P1;durP1;ratioP1;P2;durP2;ratioP2
37791;SDS011;29527;55.766;37.570;2024-01-30T00:02:14;12.68;;;8.07;;
37791;SDS011;29527;55.766;37.570;2024-01-30T00:04:40;12.73;;;8.23;;
37791;SDS011;29527;55.766;37.570;2024-01-30T00:07:06;11.48;;;7.72;;
37791;SDS011;29527;55.766;37.570;2024-01-30T00:09:31;11.90;;;8.13;;
37791;SDS011;29527;55.766;37.570;2024-01-30T00:11:57;10.68;;;6.75;;
37791;SDS011;29527;55.766;37.570;2024-01-30T00:14:22;9.52;;;7.13;;
37791;SDS011;29527;55.766;37.570;2024-01-30T00:16:48;10.93;;;7.45;;
37791;SDS011;29527;55.766;37.570;2024-01-30T00:19:14;15.48;;;7.65;;
37791;SDS011;29527;55.766;37.570;2024-01-30T00:21:39;11.25;;;7.47;;
37791;SDS011;29527;55.766;37.570;2024-01-30T00:24:05;10.52;;;7.07;;
37791;SDS011;29527;55.766;37.570;2024-01-30T00:26:30;11.50;;;7.57;;
37791;SDS011;29527;55.766;37.570;2024-01-30T00:28:56;10.68;;;7.32;;
37791;SDS011;29527;55.766;37.570;2024-01-30T00:31:21;11.60;;;7.53;;
37791;SDS011;29527;55.766;37.570;2024-01-30T00:33:47;12.35;;;7.28;;
37791;SDS011;29527;55.766;37.570;2024-01-30T00:36:12;10.23;;;7.00;;
37791;SDS011;29527;55.766;37.570;2024-01-30T00:38:38;10.73;;;6.82;;
37791;SDS011;29527;55.766;37.570;2024-01-30T00:41:04;9.77;;;7.15;;
37791;SDS011;29527;55.766;37.570;2024-01-30T00:43:30;10.57;;;7.22;;
37791;SDS011;29527;55.766;37.570;2024-01-30T00:45:56;11.27;;;7.60;;
37791;SDS011;29527;55.766;37.570;2024-01-30T00:48:23;11.27;;;7.38;;
37791;SDS011;29527;55.766;37.570;2024-01-30T00:50:49;10.90;;;7.20;;
37791;SDS011;29527;55.766;37.570;2024-01-30T00:53:14;10.70;;;7.55;;
37791;SDS011;29527;55.766;37.570;2024-01-30T00:55:40;10.68;;;7.18;;
37791;SDS011;29527;55.766;37.570;2024-01-30T00:58:05;10.52;;;7.53;;
37791;SDS011;29527;55.766;37.570;2024-01-30T01:00:31;10.48;;;7.47;;
37791;SDS011;29527;55.766;37.570;2024-01-30T01:02:57;9.40;;;6.38;;
37791;SDS011;29527;55.766;37.570;2024-01-30T01:05:24;12.40;;;7.82;;
37791;SDS011;29527;55.766;37.570;2024-01-30T01:07:50;13.07;;;7.65;;
37791;SDS011;29527;55.766;37.570;2024-01-30T01:10:18;10.68;;;7.32;;
37791;SDS011;29527;55.766;37.570;2024-01-30T01:12:45;12.57;;;8.13;;
37791;SDS011;29527;55.766;37.570;2024-01-30T01:15:11;11.25;;;7.38;;
37791;SDS011;29527;55.766;37.570;2024-01-30T01:17:37;12.27;;;7.20;;
37791;SDS011;29527;55.766;37.570;2024-01-30T01:20:03;9.32;;;7.20;;
37791;SDS011;29527;55.766;37.570;2024-01-30T01:22:31;12.00;;;8.00;;
37791;SDS011;29527;55.766;37.570;2024-01-30T01:24:58;10.35;;;7.38;;
37791;SDS011;29527;55.766;37.570;2024-01-30T01:27:24;9.95;;;7.18;;
37791;SDS011;29527;55.766;37.570;2024-01-30T01:29:50;11.88;;;8.05;;
37791;SDS011;29527;55.766;37.570;2024-01-30T01:32:16;11.52;;;8.02;;
37791;SDS011;29527;55.766;37.570;2024-01-30T01:34:42;11.13;;;7.60;;
37791;SDS011;29527;55.766;37.570;2024-01-30T01:37:07;10.32;;;7.25;;
37791;SDS011;29527;55.766;37.570;2024-01-30T01:39:33;10.82;;;7.70;;
37791;SDS011;29527;55.766;37.570;2024-01-30T01:41:58;11.05;;;7.32;;
37791;SDS011;29527;55.766;37.570;2024-01-30T01:44:24;10.25;;;7.35;;
37791;SDS011;29527;55.766;37.570;2024-01-30T01:46:50;11.05;;;8.02;;
37791;SDS011;29527;55.766;37.570;2024-01-30T01:49:16;14.15;;;8.02;;
37791;SDS011;29527;55.766;37.570;2024-01-30T01:51:42;12.88;;;7.85;;
37791;SDS011;29527;55.766;37.570;2024-01-30T01:54:09;11.30;;;7.82;;
37791;SDS011;29527;55.766;37.570;2024-01-30T01:56:36;11.25;;;8.15;;
37791;SDS011;29527;55.766;37.570;2024-01-30T01:59:04;12.00;;;7.63;;
37791;SDS011;29527;55.766;37.570;2024-01-30T02:01:32;11.07;;;7.93;;
37791;SDS011;29527;55.766;37.570;2024-01-30T02:03:59;12.50;;;7.43;;
37791;SDS011;29527;55.766;37.570;2024-01-30T02:06:26;11.75;;;7.30;;
37791;SDS011;29527;55.766;37.570;2024-01-30T02:08:52;11.88;;;8.02;;
37791;SDS011;29527;55.766;37.570;2024-01-30T02:11:19;11.55;;;7.97;;
37791;SDS011;29527;55.766;37.570;2024-01-30T02:13:46;12.30;;;8.15;;
37791;SDS011;29527;55.766;37.570;2024-01-30T02:16:12;12.75;;;7.60;;
37791;SDS011;29527;55.766;37.570;2024-01-30T02:18:38;13.05;;;8.45;;
37791;SDS011;29527;55.766;37.570;2024-01-30T02:21:16;13.10;;;7.97;;
37791;SDS011;29527;55.766;37.570;2024-01-30T02:23:44;12.65;;;7.82;;
37791;SDS011;29527;55.766;37.570;2024-01-30T02:26:12;11.48;;;7.70;;
37791;SDS011;29527;55.766;37.570;2024-01-30T02:28:38;12.18;;;8.23;;
37791;SDS011;29527;55.766;37.570;2024-01-30T02:31:04;12.05;;;8.45;;
37791;SDS011;29527;55.766;37.570;2024-01-30T02:33:30;13.32;;;8.52;;
37791;SDS011;29527;55.766;37.570;2024-01-30T02:35:55;12.18;;;7.70;;
37791;SDS011;29527;55.766;37.570;2024-01-30T02:38:21;11.27;;;7.60;;
37791;SDS011;29527;55.766;37.570;2024-01-30T02:40:47;11.50;;;8.18;;
37791;SDS011;29527;55.766;37.570;2024-01-30T02:43:13;11.82;;;7.88;;
37791;SDS011;29527;55.766;37.570;2024-01-30T02:45:38;13.57;;;8.68;;
37791;SDS011;29527;55.766;37.570;2024-01-30T02:48:04;10.77;;;7.90;;
37791;SDS011;29527;55.766;37.570;2024-01-30T02:50:30;11.05;;;7.68;;
37791;SDS011;29527;55.766;37.570;2024-01-30T02:52:55;11.75;;;8.13;;
37791;SDS011;29527;55.766;37.570;2024-01-30T02:55:21;12.80;;;8.45;;
37791;SDS011;29527;55.766;37.570;2024-01-30T02:57:46;12.63;;;8.48;;
37791;SDS011;29527;55.766;37.570;2024-01-30T03:00:12;11.77;;;7.68;;
37791;SDS011;29527;55.766;37.570;2024-01-30T03:02:38;14.50;;;8.48;;
37791;SDS011;29527;55.766;37.570;2024-01-30T03:05:05;11.43;;;8.27;;
37791;SDS011;29527;55.766;37.570;2024-01-30T03:07:31;13.13;;;8.60;;
37791;SDS011;29527;55.766;37.570;2024-01-30T03:09:57;13.38;;;7.93;;
37791;SDS011;29527;55.766;37.570;2024-01-30T03:12:22;12.43;;;8.40;;
37791;SDS011;29527;55.766;37.570;2024-01-30T03:14:48;15.43;;;9.15;;
37791;SDS011;29527;55.766;37.570;2024-01-30T03:17:14;12.13;;;8.10;;
37791;SDS011;29527;55.766;37.570;2024-01-30T03:19:40;12.07;;;8.30;;
37791;SDS011;29527;55.766;37.570;2024-01-30T03:22:06;12.35;;;7.90;;
37791;SDS011;29527;55.766;37.570;2024-01-30T03:24:31;12.25;;;8.13;;
37791;SDS011;29527;55.766;37.570;2024-01-30T03:26:57;12.50;;;7.93;;
37791;SDS011;29527;55.766;37.570;2024-01-30T03:29:22;13.10;;;7.97;;
37791;SDS011;29527;55.766;37.570;2024-01-30T03:31:48;12.02;;;8.65;;
37791;SDS011;29527;55.766;37.570;2024-01-30T03:34:13;14.10;;;8.50;;
37791;SDS011;29527;55.766;37.570;2024-01-30T03:36:39;13.43;;;8.10;;
37791;SDS011;29527;55.766;37.570;2024-01-30T03:39:05;11.63;;;8.13;;
37791;SDS011;29527;55.766;37.570;2024-01-30T03:41:31;12.18;;;7.85;;
37791;SDS011;29527;55.766;37.570;2024-01-30T03:43:57;11.45;;;7.75;;
37791;SDS011;29527;55.766;37.570;2024-01-30T03:46:22;17.08;;;7.72;;
37791;SDS011;29527;55.766;37.570;2024-01-30T03:48:48;10.52;;;7.90;;
37791;SDS011;29527;55.766;37.570;2024-01-30T03:51:13;11.82;;;8.27;;
37791;SDS011;29527;55.766;37.570;2024-01-30T03:53:41;11.88;;;8.20;;
37791;SDS011;29527;55.766;37.570;2024-01-30T03:56:07;14.52;;;8.48;;
37791;SDS011;29527;55.766;37.570;2024-01-30T03:58:33;12.50;;;8.15;;
37791;SDS011;29527;55.766;37.570;2024-01-30T04:00:59;12.82;;;8.20;;
37791;SDS011;29527;55.766;37.570;2024-01-30T04:03:24;11.82;;;8.45;;
37791;SDS011;29527;55.766;37.570;2024-01-30T04:05:51;12.70;;;8.32;;
37791;SDS011;29527;55.766;37.570;2024-01-30T04:08:17;11.32;;;7.95;;
37791;SDS011;29527;55.766;37.570;2024-01-30T04:10:43;12.57;;;7.35;;
37791;SDS011;29527;55.766;37.570;2024-01-30T04:13:08;12.02;;;7.80;;
37791;SDS011;29527;55.766;37.570;2024-01-30T04:15:34;12.10;;;7.70;;
37791;SDS011;29527;55.766;37.570;2024-01-30T04:18:00;11.13;;;8.05;;
37791;SDS011;29527;55.766;37.570;2024-01-30T04:20:26;9.90;;;7.43;;
37791;SDS011;29527;55.766;37.570;2024-01-30T04:22:51;12.05;;;7.82;;
37791;SDS011;29527;55.766;37.570;2024-01-30T04:25:17;13.30;;;8.10;;
37791;SDS011;29527;55.766;37.570;2024-01-30T04:27:44;12.10;;;7.88;;
37791;SDS011;29527;55.766;37.570;2024-01-30T04:30:09;12.00;;;7.68;;
37791;SDS011;29527;55.766;37.570;2024-01-30T04:32:35;11.40;;;7.35;;
37791;SDS011;29527;55.766;37.570;2024-01-30T04:35:02;10.73;;;7.43;;
37791;SDS011;29527;55.766;37.570;2024-01-30T04:37:30;11.55;;;7.18;;
37791;SDS011;29527;55.766;37.570;2024-01-30T04:39:56;11.55;;;7.63;;
37791;SDS011;29527;55.766;37.570;2024-01-30T04:42:21;12.38;;;7.22;;
37791;SDS011;29527;55.766;37.570;2024-01-30T04:44:49;15.13;;;8.55;;
37791;SDS011;29527;55.766;37.570;2024-01-30T04:47:15;13.35;;;8.45;;
37791;SDS011;29527;55.766;37.570;2024-01-30T04:49:40;12.95;;;8.00;;
37791;SDS011;29527;55.766;37.570;2024-01-30T04:52:06;12.13;;;8.13;;
37791;SDS011;29527;55.766;37.570;2024-01-30T04:54:32;10.90;;;8.00;;
37791;SDS011;29527;55.766;37.570;2024-01-30T04:56:58;14.25;;;8.45;;
37791;SDS011;29527;55.766;37.570;2024-01-30T04:59:24;14.57;;;8.50;;
37791;SDS011;29527;55.766;37.570;2024-01-30T05:01:49;15.35;;;7.88;;
37791;SDS011;29527;55.766;37.570;2024-01-30T05:04:15;13.70;;;8.57;;
37791;SDS011;29527;55.766;37.570;2024-01-30T05:06:41;13.10;;;8.93;;
37791;SDS011;29527;55.766;37.570;2024-01-30T05:09:06;13.85;;;8.98;;
37791;SDS011;29527;55.766;37.570;2024-01-30T05:11:39;15.10;;;8.57;;
37791;SDS011;29527;55.766;37.570;2024-01-30T05:14:05;13.88;;;8.35;;
37791;SDS011;29527;55.766;37.570;2024-01-30T05:16:31;13.20;;;9.55;;
37791;SDS011;29527;55.766;37.570;2024-01-30T05:18:58;14.20;;;9.13;;
37791;SDS011;29527;55.766;37.570;2024-01-30T05:21:24;14.45;;;8.82;;
37791;SDS011;29527;55.766;37.570;2024-01-30T05:23:49;16.75;;;9.27;;
37791;SDS011;29527;55.766;37.570;2024-01-30T05:26:15;14.77;;;8.32;;
37791;SDS011;29527;55.766;37.570;2024-01-30T05:28:41;15.70;;;8.52;;
37791;SDS011;29527;55.766;37.570;2024-01-30T05:31:06;12.48;;;8.43;;
37791;SDS011;29527;55.766;37.570;2024-01-30T05:33:32;13.30;;;8.68;;
37791;SDS011;29527;55.766;37.570;2024-01-30T05:35:57;12.75;;;7.97;;
37791;SDS011;29527;55.766;37.570;2024-01-30T05:38:23;12.73;;;8.88;;
37791;SDS011;29527;55.766;37.570;2024-01-30T05:40:48;15.18;;;8.68;;
37791;SDS011;29527;55.766;37.570;2024-01-30T05:43:14;15.57;;;9.13;;
37791;SDS011;29527;55.766;37.570;2024-01-30T05:45:40;17.63;;;10.00;;
37791;SDS011;29527;55.766;37.570;2024-01-30T05:48:06;16.05;;;8.80;;
37791;SDS011;29527;55.766;37.570;2024-01-30T05:50:32;13.95;;;8.88;;
37791;SDS011;29527;55.766;37.570;2024-01-30T05:52:57;15.02;;;9.30;;
37791;SDS011;29527;55.766;37.570;2024-01-30T05:55:23;13.98;;;9.07;;
37791;SDS011;29527;55.766;37.570;2024-01-30T05:57:48;14.90;;;9.80;;
37791;SDS011;29527;55.766;37.570;2024-01-30T06:00:14;15.48;;;9.00;;
37791;SDS011;29527;55.766;37.570;2024-01-30T06:02:40;16.40;;;9.82;;
37791;SDS011;29527;55.766;37.570;2024-01-30T06:05:05;18.05;;;9.48;;
37791;SDS011;29527;55.766;37.570;2024-01-30T06:07:31;15.07;;;9.80;;
37791;SDS011;29527;55.766;37.570;2024-01-30T06:09:57;16.55;;;9.90;;
37791;SDS011;29527;55.766;37.570;2024-01-30T06:12:22;13.25;;;9.18;;
37791;SDS011;29527;55.766;37.570;2024-01-30T06:14:48;15.95;;;9.43;;
37791;SDS011;29527;55.766;37.570;2024-01-30T06:17:13;16.63;;;9.75;;
37791;SDS011;29527;55.766;37.570;2024-01-30T06:19:39;16.00;;;9.90;;
37791;SDS011;29527;55.766;37.570;2024-01-30T06:22:05;16.35;;;9.70;;
37791;SDS011;29527;55.766;37.570;2024-01-30T06:24:30;16.02;;;10.07;;
37791;SDS011;29527;55.766;37.570;2024-01-30T06:26:56;16.42;;;9.70;;
37791;SDS011;29527;55.766;37.570;2024-01-30T06:29:21;17.58;;;10.82;;
37791;SDS011;29527;55.766;37.570;2024-01-30T06:31:47;17.08;;;10.43;;
37791;SDS011;29527;55.766;37.570;2024-01-30T06:34:13;15.90;;;10.80;;
37791;SDS011;29527;55.766;37.570;2024-01-30T06:36:38;16.27;;;10.80;;
37791;SDS011;29527;55.766;37.570;2024-01-30T06:39:04;17.70;;;10.90;;
37791;SDS011;29527;55.766;37.570;2024-01-30T06:41:30;16.67;;;10.68;;
37791;SDS011;29527;55.766;37.570;2024-01-30T06:43:56;24.00;;;11.45;;
37791;SDS011;29527;55.766;37.570;2024-01-30T06:46:22;16.23;;;10.02;;
37791;SDS011;29527;55.766;37.570;2024-01-30T06:48:48;20.30;;;11.27;;
37791;SDS011;29527;55.766;37.570;2024-01-30T06:51:13;17.58;;;10.95;;
37791;SDS011;29527;55.766;37.570;2024-01-30T06:53:39;17.40;;;10.60;;
37791;SDS011;29527;55.766;37.570;2024-01-30T06:56:05;19.15;;;11.30;;
37791;SDS011;29527;55.766;37.570;2024-01-30T06:58:31;17.65;;;11.18;;
37791;SDS011;29527;55.766;37.570;2024-01-30T07:00:57;19.95;;;11.13;;
37791;SDS011;29527;55.766;37.570;2024-01-30T07:03:23;20.65;;;10.98;;
37791;SDS011;29527;55.766;37.570;2024-01-30T07:05:49;18.73;;;11.25;;
37791;SDS011;29527;55.766;37.570;2024-01-30T07:08:15;16.90;;;11.35;;
37791;SDS011;29527;55.766;37.570;2024-01-30T07:10:44;18.48;;;10.80;;
37791;SDS011;29527;55.766;37.570;2024-01-30T07:13:10;28.42;;;11.85;;
37791;SDS011;29527;55.766;37.570;2024-01-30T07:15:36;19.38;;;11.10;;
37791;SDS011;29527;55.766;37.570;2024-01-30T07:18:02;18.75;;;11.80;;
37791;SDS011;29527;55.766;37.570;2024-01-30T07:20:30;18.73;;;11.15;;
37791;SDS011;29527;55.766;37.570;2024-01-30T07:22:57;18.63;;;11.43;;
37791;SDS011;29527;55.766;37.570;2024-01-30T07:25:23;21.52;;;11.75;;
37791;SDS011;29527;55.766;37.570;2024-01-30T07:27:52;18.73;;;11.30;;
37791;SDS011;29527;55.766;37.570;2024-01-30T07:30:19;19.77;;;11.63;;
37791;SDS011;29527;55.766;37.570;2024-01-30T07:32:45;19.00;;;11.50;;
37791;SDS011;29527;55.766;37.570;2024-01-30T07:35:12;16.88;;;11.52;;
37791;SDS011;29527;55.766;37.570;2024-01-30T07:37:37;20.25;;;11.70;;
37791;SDS011;29527;55.766;37.570;2024-01-30T07:40:03;23.23;;;12.27;;
37791;SDS011;29527;55.766;37.570;2024-01-30T07:42:30;18.98;;;11.57;;
37791;SDS011;29527;55.766;37.570;2024-01-30T07:44:55;18.83;;;11.57;;
37791;SDS011;29527;55.766;37.570;2024-01-30T07:47:21;19.20;;;11.35;;
37791;SDS011;29527;55.766;37.570;2024-01-30T07:49:46;22.88;;;12.52;;
37791;SDS011;29527;55.766;37.570;2024-01-30T07:52:13;17.50;;;11.00;;
37791;SDS011;29527;55.766;37.570;2024-01-30T07:54:38;21.35;;;11.80;;
37791;SDS011;29527;55.766;37.570;2024-01-30T07:57:04;21.73;;;12.02;;
37791;SDS011;29527;55.766;37.570;2024-01-30T07:59:29;20.35;;;11.90;;
37791;SDS011;29527;55.766;37.570;2024-01-30T08:01:55;18.85;;;11.55;;
37791;SDS011;29527;55.766;37.570;2024-01-30T08:04:20;17.80;;;11.57;;
37791;SDS011;29527;55.766;37.570;2024-01-30T08:06:46;20.75;;;11.98;;
37791;SDS011;29527;55.766;37.570;2024-01-30T08:09:12;21.98;;;12.00;;
37791;SDS011;29527;55.766;37.570;2024-01-30T08:11:37;23.20;;;12.50;;
37791;SDS011;29527;55.766;37.570;2024-01-30T08:14:03;22.27;;;12.85;;
37791;SDS011;29527;55.766;37.570;2024-01-30T08:16:28;22.95;;;11.77;;
37791;SDS011;29527;55.766;37.570;2024-01-30T08:18:54;22.92;;;12.65;;
37791;SDS011;29527;55.766;37.570;2024-01-30T08:21:22;24.25;;;12.55;;
37791;SDS011;29527;55.766;37.570;2024-01-30T08:23:48;19.50;;;11.77;;
37791;SDS011;29527;55.766;37.570;2024-01-30T08:26:13;20.65;;;12.57;;
37791;SDS011;29527;55.766;37.570;2024-01-30T08:28:39;22.15;;;12.35;;
37791;SDS011;29527;55.766;37.570;2024-01-30T08:31:04;23.90;;;12.85;;
37791;SDS011;29527;55.766;37.570;2024-01-30T08:33:30;26.73;;;13.40;;
37791;SDS011;29527;55.766;37.570;2024-01-30T08:35:55;21.13;;;11.90;;
37791;SDS011;29527;55.766;37.570;2024-01-30T08:38:21;18.88;;;11.95;;
37791;SDS011;29527;55.766;37.570;2024-01-30T08:40:46;21.23;;;12.77;;
37791;SDS011;29527;55.766;37.570;2024-01-30T08:43:12;19.40;;;12.20;;
37791;SDS011;29527;55.766;37.570;2024-01-30T08:45:38;20.83;;;12.13;;
37791;SDS011;29527;55.766;37.570;2024-01-30T08:48:04;20.20;;;11.73;;
37791;SDS011;29527;55.766;37.570;2024-01-30T08:50:29;20.38;;;11.52;;
37791;SDS011;29527;55.766;37.570;2024-01-30T08:52:55;20.83;;;11.70;;
37791;SDS011;29527;55.766;37.570;2024-01-30T08:55:22;20.73;;;12.45;;
37791;SDS011;29527;55.766;37.570;2024-01-30T08:57:47;22.38;;;12.00;;
37791;SDS011;29527;55.766;37.570;2024-01-30T09:00:13;26.05;;;12.52;;
37791;SDS011;29527;55.766;37.570;2024-01-30T09:02:39;22.55;;;13.32;;
37791;SDS011;29527;55.766;37.570;2024-01-30T09:05:05;22.75;;;11.93;;
37791;SDS011;29527;55.766;37.570;2024-01-30T09:07:31;18.77;;;10.95;;
37791;SDS011;29527;55.766;37.570;2024-01-30T09:09:56;19.33;;;12.13;;
37791;SDS011;29527;55.766;37.570;2024-01-30T09:12:22;22.60;;;12.57;;
37791;SDS011;29527;55.766;37.570;2024-01-30T09:14:47;19.85;;;11.95;;
37791;SDS011;29527;55.766;37.570;2024-01-30T09:17:13;21.33;;;12.88;;
37791;SDS011;29527;55.766;37.570;2024-01-30T09:19:40;19.20;;;11.32;;
37791;SDS011;29527;55.766;37.570;2024-01-30T09:22:06;22.42;;;11.90;;
37791;SDS011;29527;55.766;37.570;2024-01-30T09:24:31;20.70;;;11.40;;
37791;SDS011;29527;55.766;37.570;2024-01-30T09:26:57;19.60;;;12.60;;
37791;SDS011;29527;55.766;37.570;2024-01-30T09:29:22;24.25;;;12.30;;
37791;SDS011;29527;55.766;37.570;2024-01-30T09:31:48;21.63;;;12.07;;
37791;SDS011;29527;55.766;37.570;2024-01-30T09:34:13;23.90;;;11.98;;
37791;SDS011;29527;55.766;37.570;2024-01-30T09:36:39;18.65;;;11.52;;
37791;SDS011;29527;55.766;37.570;2024-01-30T09:39:05;19.98;;;11.82;;
37791;SDS011;29527;55.766;37.570;2024-01-30T09:41:37;20.05;;;11.43;;
37791;SDS011;29527;55.766;37.570;2024-01-30T09:44:16;19.33;;;12.23;;
37791;SDS011;29527;55.766;37.570;2024-01-30T09:46:44;19.88;;;12.60;;
37791;SDS011;29527;55.766;37.570;2024-01-30T09:49:13;18.55;;;11.30;;
37791;SDS011;29527;55.766;37.570;2024-01-30T09:51:39;22.30;;;10.85;;
37791;SDS011;29527;55.766;37.570;2024-01-30T09:54:05;18.65;;;11.55;;
37791;SDS011;29527;55.766;37.570;2024-01-30T09:56:35;17.85;;;12.00;;
37791;SDS011;29527;55.766;37.570;2024-01-30T09:59:00;16.80;;;11.68;;
37791;SDS011;29527;55.766;37.570;2024-01-30T10:01:26;18.50;;;11.27;;
37791;SDS011;29527;55.766;37.570;2024-01-30T10:03:52;21.38;;;12.23;;
37791;SDS011;29527;55.766;37.570;2024-01-30T10:06:19;17.83;;;11.63;;
37791;SDS011;29527;55.766;37.570;2024-01-30T10:08:46;20.25;;;12.32;;
37791;SDS011;29527;55.766;37.570;2024-01-30T10:11:11;20.75;;;12.60;;
37791;SDS011;29527;55.766;37.570;2024-01-30T10:13:38;19.70;;;12.48;;
37791;SDS011;29527;55.766;37.570;2024-01-30T10:16:04;19.45;;;12.27;;
37791;SDS011;29527;55.766;37.570;2024-01-30T10:18:32;24.83;;;12.90;;
37791;SDS011;29527;55.766;37.570;2024-01-30T10:20:58;18.90;;;12.15;;
37791;SDS011;29527;55.766;37.570;2024-01-30T10:23:24;20.35;;;12.30;;
37791;SDS011;29527;55.766;37.570;2024-01-30T10:25:50;20.80;;;11.95;;
37791;SDS011;29527;55.766;37.570;2024-01-30T10:28:17;23.58;;;12.38;;
37791;SDS011;29527;55.766;37.570;2024-01-30T10:30:42;21.02;;;11.18;;
37791;SDS011;29527;55.766;37.570;2024-01-30T10:33:08;17.13;;;11.80;;
37791;SDS011;29527;55.766;37.570;2024-01-30T10:35:33;24.08;;;12.68;;
37791;SDS011;29527;55.766;37.570;2024-01-30T10:37:59;24.75;;;12.43;;
37791;SDS011;29527;55.766;37.570;2024-01-30T10:40:27;20.98;;;12.68;;
37791;SDS011;29527;55.766;37.570;2024-01-30T10:42:54;19.27;;;12.27;;
37791;SDS011;29527;55.766;37.570;2024-01-30T10:45:21;25.60;;;12.68;;
37791;SDS011;29527;55.766;37.570;2024-01-30T10:47:52;19.98;;;12.50;;
37791;SDS011;29527;55.766;37.570;2024-01-30T10:50:19;19.70;;;12.48;;
37791;SDS011;29527;55.766;37.570;2024-01-30T10:52:46;22.77;;;11.82;;
37791;SDS011;29527;55.766;37.570;2024-01-30T10:55:12;22.73;;;12.93;;
37791;SDS011;29527;55.766;37.570;2024-01-30T10:57:40;22.35;;;11.85;;
37791;SDS011;29527;55.766;37.570;2024-01-30T11:00:07;21.08;;;12.40;;
37791;SDS011;29527;55.766;37.570;2024-01-30T11:02:39;17.95;;;11.23;;
37791;SDS011;29527;55.766;37.570;2024-01-30T11:05:08;20.67;;;12.10;;
37791;SDS011;29527;55.766;37.570;2024-01-30T11:07:34;21.15;;;11.75;;
37791;SDS011;29527;55.766;37.570;2024-01-30T11:10:00;21.98;;;12.73;;
37791;SDS011;29527;55.766;37.570;2024-01-30T11:12:31;17.25;;;11.30;;
37791;SDS011;29527;55.766;37.570;2024-01-30T11:17:45;21.17;;;11.90;;
37791;SDS011;29527;55.766;37.570;2024-01-30T11:22:49;23.17;;;12.43;;
37791;SDS011;29527;55.766;37.570;2024-01-30T11:25:18;18.98;;;11.90;;
37791;SDS011;29527;55.766;37.570;2024-01-30T11:27:45;26.33;;;12.15;;
37791;SDS011;29527;55.766;37.570;2024-01-30T11:30:21;19.38;;;12.13;;
37791;SDS011;29527;55.766;37.570;2024-01-30T11:33:10;22.05;;;12.80;;
37791;SDS011;29527;55.766;37.570;2024-01-30T11:35:39;20.48;;;11.98;;
37791;SDS011;29527;55.766;37.570;2024-01-30T11:38:10;19.70;;;11.10;;
37791;SDS011;29527;55.766;37.570;2024-01-30T11:40:37;19.02;;;11.90;;
37791;SDS011;29527;55.766;37.570;2024-01-30T11:43:04;19.90;;;12.40;;
37791;SDS011;29527;55.766;37.570;2024-01-30T11:45:32;20.85;;;12.13;;
37791;SDS011;29527;55.766;37.570;2024-01-30T11:47:59;19.17;;;12.07;;
37791;SDS011;29527;55.766;37.570;2024-01-30T11:50:33;19.08;;;11.65;;
37791;SDS011;29527;55.766;37.570;2024-01-30T11:53:00;21.63;;;12.35;;
37791;SDS011;29527;55.766;37.570;2024-01-30T11:55:26;19.52;;;11.73;;
37791;SDS011;29527;55.766;37.570;2024-01-30T11:57:55;20.98;;;12.43;;
37791;SDS011;29527;55.766;37.570;2024-01-30T12:00:24;21.50;;;12.30;;
37791;SDS011;29527;55.766;37.570;2024-01-30T12:02:50;20.27;;;12.82;;
37791;SDS011;29527;55.766;37.570;2024-01-30T12:05:20;18.95;;;12.02;;
37791;SDS011;29527;55.766;37.570;2024-01-30T12:07:46;20.02;;;12.48;;
37791;SDS011;29527;55.766;37.570;2024-01-30T12:10:13;21.15;;;12.60;;
37791;SDS011;29527;55.766;37.570;2024-01-30T12:12:47;19.60;;;12.32;;
37791;SDS011;29527;55.766;37.570;2024-01-30T12:15:15;19.52;;;12.57;;
37791;SDS011;29527;55.766;37.570;2024-01-30T12:17:41;21.52;;;12.90;;
37791;SDS011;29527;55.766;37.570;2024-01-30T12:22:35;25.63;;;13.05;;
37791;SDS011;29527;55.766;37.570;2024-01-30T12:25:18;23.77;;;12.93;;
37791;SDS011;29527;55.766;37.570;2024-01-30T12:27:46;21.02;;;12.15;;
37791;SDS011;29527;55.766;37.570;2024-01-30T12:30:15;19.98;;;13.02;;
37791;SDS011;29527;55.766;37.570;2024-01-30T12:32:46;25.02;;;13.15;;
37791;SDS011;29527;55.766;37.570;2024-01-30T12:35:14;19.08;;;11.82;;
37791;SDS011;29527;55.766;37.570;2024-01-30T12:37:43;21.42;;;12.48;;
37791;SDS011;29527;55.766;37.570;2024-01-30T12:40:11;22.25;;;13.00;;
37791;SDS011;29527;55.766;37.570;2024-01-30T12:42:39;23.95;;;13.07;;
37791;SDS011;29527;55.766;37.570;2024-01-30T12:45:07;22.77;;;12.30;;
37791;SDS011;29527;55.766;37.570;2024-01-30T12:47:33;23.42;;;13.10;;
37791;SDS011;29527;55.766;37.570;2024-01-30T12:50:00;24.67;;;12.82;;
37791;SDS011;29527;55.766;37.570;2024-01-30T12:52:25;19.95;;;12.88;;
37791;SDS011;29527;55.766;37.570;2024-01-30T12:54:51;23.63;;;12.95;;
37791;SDS011;29527;55.766;37.570;2024-01-30T12:57:17;23.75;;;12.93;;
37791;SDS011;29527;55.766;37.570;2024-01-30T12:59:44;22.58;;;13.15;;
37791;SDS011;29527;55.766;37.570;2024-01-30T13:02:11;22.42;;;12.75;;
37791;SDS011;29527;55.766;37.570;2024-01-30T13:04:38;21.55;;;12.98;;
37791;SDS011;29527;55.766;37.570;2024-01-30T13:07:03;24.35;;;13.80;;
37791;SDS011;29527;55.766;37.570;2024-01-30T13:09:29;24.65;;;13.02;;
37791;SDS011;29527;55.766;37.570;2024-01-30T13:11:55;22.42;;;12.80;;
37791;SDS011;29527;55.766;37.570;2024-01-30T13:14:21;19.27;;;12.27;;
37791;SDS011;29527;55.766;37.570;2024-01-30T13:16:47;23.23;;;13.13;;
37791;SDS011;29527;55.766;37.570;2024-01-30T13:19:12;25.05;;;12.73;;
37791;SDS011;29527;55.766;37.570;2024-01-30T13:21:38;21.17;;;12.52;;
37791;SDS011;29527;55.766;37.570;2024-01-30T13:24:04;21.85;;;12.70;;
37791;SDS011;29527;55.766;37.570;2024-01-30T13:26:31;19.60;;;12.27;;
37791;SDS011;29527;55.766;37.570;2024-01-30T13:28:57;22.40;;;13.05;;
37791;SDS011;29527;55.766;37.570;2024-01-30T13:31:23;22.77;;;13.30;;
37791;SDS011;29527;55.766;37.570;2024-01-30T13:33:48;24.42;;;13.27;;
37791;SDS011;29527;55.766;37.570;2024-01-30T13:36:14;25.58;;;13.45;;
37791;SDS011;29527;55.766;37.570;2024-01-30T13:38:40;23.27;;;13.68;;
37791;SDS011;29527;55.766;37.570;2024-01-30T13:41:05;22.75;;;13.32;;
37791;SDS011;29527;55.766;37.570;2024-01-30T13:43:31;23.55;;;11.98;;
37791;SDS011;29527;55.766;37.570;2024-01-30T13:45:57;26.00;;;13.25;;
37791;SDS011;29527;55.766;37.570;2024-01-30T13:48:23;21.55;;;13.02;;
37791;SDS011;29527;55.766;37.570;2024-01-30T13:50:48;24.40;;;13.27;;
37791;SDS011;29527;55.766;37.570;2024-01-30T13:53:14;22.33;;;14.00;;
37791;SDS011;29527;55.766;37.570;2024-01-30T13:55:39;21.90;;;13.23;;
37791;SDS011;29527;55.766;37.570;2024-01-30T13:58:06;23.10;;;13.18;;
37791;SDS011;29527;55.766;37.570;2024-01-30T14:00:32;21.50;;;13.23;;
37791;SDS011;29527;55.766;37.570;2024-01-30T14:02:59;22.70;;;12.90;;
37791;SDS011;29527;55.766;37.570;2024-01-30T14:05:25;22.35;;;12.95;;
37791;SDS011;29527;55.766;37.570;2024-01-30T14:07:54;24.17;;;13.18;;
37791;SDS011;29527;55.766;37.570;2024-01-30T14:10:20;21.85;;;13.82;;
37791;SDS011;29527;55.766;37.570;2024-01-30T14:12:46;26.52;;;13.55;;
37791;SDS011;29527;55.766;37.570;2024-01-30T14:15:13;22.45;;;13.10;;
37791;SDS011;29527;55.766;37.570;2024-01-30T14:17:47;22.77;;;13.70;;